createdAt,value
2019-04-01T00:00:17.797Z,3.25
2019-04-01T00:02:46.376Z,3.21
2019-04-01T00:05:14.977Z,3.16
2019-04-01T00:07:43.653Z,3.14
2019-04-01T00:10:12.332Z,3.12
2019-04-01T00:12:41.086Z,3.09
2019-04-01T00:15:09.710Z,3.05
2019-04-01T00:17:38.316Z,3.02
2019-04-01T00:20:07.939Z,2.97
2019-04-01T00:22:36.536Z,2.94
2019-04-01T00:25:05.308Z,2.88
2019-04-01T00:27:33.920Z,2.87
2019-04-01T00:30:02.629Z,2.84
2019-04-01T00:32:31.173Z,2.82
2019-04-01T00:34:59.713Z,2.80
2019-04-01T00:37:28.509Z,2.77
2019-04-01T00:39:57.210Z,2.76
2019-04-01T00:42:27.465Z,2.74
2019-04-01T00:44:56.239Z,2.72
2019-04-01T00:47:24.889Z,2.68
2019-04-01T00:49:53.469Z,2.65
2019-04-01T00:52:22.337Z,2.63
2019-04-01T00:54:50.978Z,2.62
2019-04-01T00:57:19.577Z,2.57
2019-04-01T00:59:48.530Z,2.59
2019-04-01T01:02:17.112Z,2.55
2019-04-01T01:04:45.770Z,2.54
2019-04-01T01:07:14.406Z,2.52
2019-04-01T01:09:43.026Z,2.52
2019-04-01T01:12:11.572Z,2.50
2019-04-01T01:14:40.215Z,2.48
2019-04-01T01:17:08.789Z,2.46
2019-04-01T01:19:37.437Z,2.44
2019-04-01T01:22:06.041Z,2.42
2019-04-01T01:24:34.690Z,2.41
2019-04-01T01:27:03.377Z,2.39
2019-04-01T01:29:31.998Z,2.37
2019-04-01T01:32:00.628Z,2.34
2019-04-01T01:34:29.640Z,2.32
2019-04-01T01:36:58.445Z,2.32
2019-04-01T01:39:27.072Z,2.29
2019-04-01T01:41:55.644Z,2.26
2019-04-01T01:44:24.219Z,2.25
2019-04-01T01:46:52.848Z,2.22
2019-04-01T01:49:21.620Z,2.21
2019-04-01T01:51:50.194Z,2.19
2019-04-01T01:54:19.140Z,2.17
2019-04-01T01:56:47.719Z,2.15
2019-04-01T01:59:16.655Z,2.15
2019-04-01T02:01:45.266Z,2.13
2019-04-01T02:04:13.838Z,2.11
2019-04-01T02:06:42.706Z,2.09
2019-04-01T02:09:11.290Z,2.07
2019-04-01T02:11:39.855Z,2.05
2019-04-01T02:14:08.357Z,2.04
2019-04-01T02:16:37.156Z,2.00
2019-04-01T02:19:05.756Z,2.00
2019-04-01T02:21:35.048Z,1.97
2019-04-01T02:24:03.818Z,1.95
2019-04-01T02:26:32.362Z,1.92
2019-04-01T02:29:00.935Z,1.89
2019-04-01T02:31:29.543Z,1.88
2019-04-01T02:33:58.116Z,1.85
2019-04-01T02:36:26.693Z,1.84
2019-04-01T02:38:55.276Z,1.80
2019-04-01T02:41:23.880Z,1.76
2019-04-01T02:43:52.991Z,1.74
2019-04-01T02:46:21.647Z,1.73
2019-04-01T02:48:50.227Z,1.71
2019-04-01T02:51:18.971Z,1.68
2019-04-01T02:53:47.610Z,1.65
2019-04-01T02:56:16.200Z,1.63
2019-04-01T02:58:44.772Z,1.62
2019-04-01T03:01:13.348Z,1.59
2019-04-01T03:03:42.261Z,1.59
2019-04-01T03:06:10.827Z,1.58
2019-04-01T03:08:39.400Z,1.58
2019-04-01T03:11:10.716Z,1.57
2019-04-01T03:13:38.689Z,1.54
2019-04-01T03:16:07.531Z,1.53
2019-04-01T03:18:37.550Z,1.53
2019-04-01T03:21:06.123Z,1.51
2019-04-01T03:23:34.769Z,1.52
2019-04-01T03:26:03.814Z,1.50
2019-04-01T03:28:32.501Z,1.49
2019-04-01T03:31:01.082Z,1.46
2019-04-01T03:33:29.713Z,1.44
2019-04-01T03:35:58.309Z,1.43
2019-04-01T03:38:28.123Z,1.42
2019-04-01T03:40:57.862Z,1.40
2019-04-01T03:43:26.503Z,1.38
2019-04-01T03:45:55.107Z,1.36
2019-04-01T03:48:23.809Z,1.35
2019-04-01T03:50:52.386Z,1.35
2019-04-01T03:53:21.462Z,1.33
2019-04-01T03:55:50.045Z,1.29
2019-04-01T03:58:18.614Z,1.26
2019-04-01T04:00:47.535Z,1.25
2019-04-01T04:03:16.241Z,1.25
2019-04-01T04:05:44.838Z,1.23
2019-04-01T04:08:13.395Z,1.20
2019-04-01T04:10:41.988Z,1.18
2019-04-01T04:13:10.662Z,1.16
2019-04-01T04:15:39.218Z,1.16
2019-04-01T04:18:07.800Z,1.14
2019-04-01T04:20:36.479Z,1.11
2019-04-01T04:23:05.045Z,1.10
2019-04-01T04:25:34.130Z,1.09
2019-04-01T04:28:02.776Z,1.08
2019-04-01T04:30:31.404Z,1.05
2019-04-01T04:33:00.042Z,1.03
2019-04-01T04:35:28.713Z,0.99
2019-04-01T04:37:57.317Z,0.96
2019-04-01T04:40:25.908Z,0.93
2019-04-01T04:42:54.861Z,0.91
2019-04-01T04:45:23.428Z,0.89
2019-04-01T04:47:52.014Z,0.88
2019-04-01T04:50:20.891Z,0.87
2019-04-01T04:52:49.488Z,0.84
2019-04-01T04:55:18.068Z,0.83
2019-04-01T04:57:46.733Z,0.83
2019-04-01T05:00:15.701Z,0.83
2019-04-01T05:02:44.923Z,0.84
2019-04-01T05:05:13.581Z,0.83
2019-04-01T05:07:42.150Z,0.83
2019-04-01T05:10:10.935Z,0.81
2019-04-01T05:12:39.823Z,0.80
2019-04-01T05:15:08.652Z,0.80
2019-04-01T05:17:38.160Z,0.80
2019-04-01T05:20:06.869Z,0.78
2019-04-01T05:22:36.248Z,0.78
2019-04-01T05:25:05.681Z,0.80
2019-04-01T05:27:37.489Z,0.81
2019-04-01T05:30:06.875Z,0.84
2019-04-01T05:32:37.617Z,0.87
2019-04-01T05:35:07.234Z,0.90
2019-04-01T05:37:36.218Z,0.93
2019-04-01T05:40:06.625Z,0.95
2019-04-01T05:42:36.139Z,0.99
2019-04-01T05:45:06.813Z,1.02
2019-04-01T05:47:49.315Z,1.06
2019-04-01T05:50:17.928Z,1.10
2019-04-01T05:52:46.513Z,1.13
2019-04-01T05:55:15.630Z,1.18
2019-04-01T05:57:44.219Z,1.24
2019-04-01T06:00:15.338Z,1.30
2019-04-01T06:02:43.920Z,1.35
2019-04-01T06:05:12.702Z,1.40
2019-04-01T06:07:41.270Z,1.46
2019-04-01T06:10:09.887Z,1.52
2019-04-01T06:12:38.882Z,1.57
2019-04-01T06:15:07.749Z,1.63
2019-04-01T06:17:36.518Z,1.70
2019-04-01T06:20:06.487Z,1.77
2019-04-01T06:22:35.372Z,1.86
2019-04-01T06:25:05.052Z,1.93
2019-04-01T06:27:33.836Z,2.01
2019-04-01T06:30:02.684Z,2.16
2019-04-01T06:32:31.558Z,2.70
2019-04-01T06:35:00.242Z,3.52
2019-04-01T06:37:29.006Z,4.38
2019-04-01T06:39:57.583Z,5.29
2019-04-01T06:42:26.273Z,6.10
2019-04-01T06:44:55.125Z,6.74
2019-04-01T06:47:23.767Z,7.22
2019-04-01T06:49:52.335Z,7.69
2019-04-01T06:52:21.208Z,8.17
2019-04-01T06:54:49.787Z,8.66
2019-04-01T06:57:18.481Z,9.23
2019-04-01T06:59:47.770Z,9.75
2019-04-01T07:02:16.349Z,10.05
2019-04-01T07:04:44.991Z,10.47
2019-04-01T07:07:19.297Z,10.82
2019-04-01T07:09:44.108Z,10.96
2019-04-01T07:12:12.721Z,11.13
2019-04-01T07:14:42.048Z,11.42
2019-04-01T07:17:11.126Z,11.66
2019-04-01T07:19:40.033Z,11.93
2019-04-01T07:22:09.394Z,12.18
2019-04-01T07:24:38.099Z,12.52
2019-04-01T07:27:08.261Z,12.79
2019-04-01T07:29:37.452Z,12.89
2019-04-01T07:32:06.738Z,13.19
2019-04-01T07:34:35.334Z,13.36
2019-04-01T07:37:05.566Z,13.66
2019-04-01T07:39:34.286Z,13.99
2019-04-01T07:42:03.470Z,14.43
2019-04-01T07:44:32.247Z,14.61
2019-04-01T07:47:00.855Z,14.89
2019-04-01T07:49:29.547Z,15.27
2019-04-01T07:51:58.184Z,15.47
2019-04-01T07:54:26.773Z,15.78
2019-04-01T07:56:56.012Z,15.67
2019-04-01T07:59:24.807Z,15.66
2019-04-01T08:01:53.579Z,15.69
2019-04-01T08:04:23.206Z,15.73
2019-04-01T08:06:51.794Z,15.86
2019-04-01T08:09:20.457Z,15.84
2019-04-01T08:11:50.572Z,16.05
2019-04-01T08:14:19.665Z,16.01
2019-04-01T08:16:50.236Z,15.94
2019-04-01T08:19:20.168Z,16.15
2019-04-01T08:21:52.348Z,16.53
2019-04-01T08:24:19.805Z,16.68
2019-04-01T08:26:48.407Z,17.07
2019-04-01T08:29:29.512Z,17.42
2019-04-01T08:31:47.492Z,17.29
2019-04-01T08:34:17.915Z,17.19
2019-04-01T08:36:47.305Z,17.40
2019-04-01T08:39:16.072Z,17.42
2019-04-01T08:41:44.660Z,17.61
2019-04-01T08:44:13.481Z,17.61
2019-04-01T08:46:42.167Z,17.82
2019-04-01T08:49:10.747Z,17.99
2019-04-01T08:51:40.035Z,17.72
2019-04-01T08:54:08.634Z,17.63
2019-04-01T08:56:38.346Z,17.56
2019-04-01T08:59:07.260Z,17.51
2019-04-01T09:01:35.841Z,17.59
2019-04-01T09:04:04.440Z,17.61
2019-04-01T09:06:33.050Z,17.82
2019-04-01T09:09:02.440Z,17.61
2019-04-01T09:11:31.317Z,17.43
2019-04-01T09:14:00.307Z,17.52
2019-04-01T09:16:29.483Z,17.79
2019-04-01T09:18:58.066Z,17.97
2019-04-01T09:21:26.723Z,18.09
2019-04-01T09:23:55.307Z,18.50
2019-04-01T09:26:23.930Z,18.40
2019-04-01T09:28:52.508Z,18.42
2019-04-01T09:31:21.083Z,18.60
2019-04-01T09:33:49.674Z,18.72
2019-04-01T09:36:18.245Z,18.63
2019-04-01T09:38:46.851Z,18.69
2019-04-01T09:41:15.434Z,18.73
2019-04-01T09:43:44.011Z,18.69
2019-04-01T09:46:12.599Z,18.64
2019-04-01T09:48:42.130Z,18.68
2019-04-01T09:51:10.906Z,18.49
2019-04-01T09:53:39.488Z,18.52
2019-04-01T09:56:08.094Z,18.53
2019-04-01T09:58:36.672Z,18.62
2019-04-01T10:01:05.267Z,18.59
2019-04-01T10:03:33.934Z,18.54
2019-04-01T10:06:02.512Z,18.52
2019-04-01T10:08:42.203Z,18.49
2019-04-01T10:11:01.403Z,18.65
2019-04-01T10:13:29.979Z,18.73
2019-04-01T10:15:58.792Z,18.81
2019-04-01T10:18:27.365Z,18.62
2019-04-01T10:20:55.944Z,18.65
2019-04-01T10:23:24.602Z,18.69
2019-04-01T10:25:53.182Z,18.62
2019-04-01T10:28:21.762Z,18.55
2019-04-01T10:30:50.351Z,18.56
2019-04-01T10:33:19.007Z,18.42
2019-04-01T10:35:47.588Z,18.37
2019-04-01T10:38:16.185Z,18.39
2019-04-01T10:40:44.762Z,18.25
2019-04-01T10:43:13.376Z,18.21
2019-04-01T10:45:41.964Z,18.40
2019-04-01T10:48:10.581Z,18.44
2019-04-01T10:50:39.222Z,18.62
2019-04-01T10:53:07.840Z,18.63
2019-04-01T10:55:36.379Z,18.58
2019-04-01T10:58:05.142Z,18.54
2019-04-01T11:00:33.715Z,18.50
2019-04-01T11:03:05.892Z,18.39
2019-04-01T11:05:32.732Z,18.28
2019-04-01T11:08:01.384Z,18.20
2019-04-01T11:10:30.206Z,18.24
2019-04-01T11:12:59.466Z,18.35
2019-04-01T11:15:28.075Z,18.57
2019-04-01T11:17:56.656Z,18.84
2019-04-01T11:20:25.233Z,19.00
2019-04-01T11:22:53.810Z,19.04
2019-04-01T11:25:22.415Z,19.33
2019-04-01T11:27:51.040Z,19.53
2019-04-01T11:30:20.512Z,19.70
2019-04-01T11:32:49.206Z,19.75
2019-04-01T11:35:17.838Z,19.67
2019-04-01T11:37:46.408Z,19.59
2019-04-01T11:40:15.169Z,19.41
2019-04-01T11:42:43.858Z,19.40
2019-04-01T11:45:12.676Z,19.35
2019-04-01T11:47:41.254Z,19.34
2019-04-01T11:50:09.976Z,19.37
2019-04-01T11:52:38.617Z,19.35
2019-04-01T11:55:08.922Z,19.21
2019-04-01T11:57:37.988Z,19.20
2019-04-01T12:00:12.603Z,19.15
2019-04-01T12:02:41.388Z,19.26
2019-04-01T12:05:10.128Z,19.37
2019-04-01T12:07:38.723Z,19.29
2019-04-01T12:10:07.980Z,19.23
2019-04-01T12:12:36.806Z,19.49
2019-04-01T12:15:06.833Z,19.49
2019-04-01T12:17:35.894Z,19.41
2019-04-01T12:20:06.034Z,19.53
2019-04-01T12:22:34.613Z,19.60
2019-04-01T12:25:03.195Z,19.75
2019-04-01T12:27:31.769Z,19.86
2019-04-01T12:30:00.442Z,19.95
2019-04-01T12:32:28.962Z,19.84
2019-04-01T12:34:57.554Z,19.99
2019-04-01T12:37:29.911Z,19.89
2019-04-01T12:39:56.568Z,19.62
2019-04-01T12:42:25.306Z,19.52
2019-04-01T12:44:54.039Z,19.52
2019-04-01T12:47:22.689Z,19.48
2019-04-01T12:49:51.292Z,19.53
2019-04-01T12:52:19.869Z,19.63
2019-04-01T12:54:48.478Z,19.79
2019-04-01T12:57:18.899Z,19.75
2019-04-01T12:59:47.406Z,19.63
2019-04-01T13:02:18.117Z,19.56
2019-04-01T13:04:49.429Z,19.55
2019-04-01T13:07:16.649Z,19.56
2019-04-01T13:09:45.470Z,19.63
2019-04-01T13:12:14.020Z,19.57
2019-04-01T13:14:43.442Z,19.56
2019-04-01T13:17:12.231Z,19.51
2019-04-01T13:19:40.839Z,19.28
2019-04-01T13:22:09.498Z,19.25
2019-04-01T13:24:38.122Z,19.10
2019-04-01T13:27:09.107Z,19.12
2019-04-01T13:29:37.103Z,18.99
2019-04-01T13:32:09.988Z,18.90
2019-04-01T13:34:38.753Z,18.71
2019-04-01T13:37:08.077Z,18.69
2019-04-01T13:39:37.762Z,18.81
2019-04-01T13:42:06.449Z,18.85
2019-04-01T13:44:37.668Z,18.83
2019-04-01T13:47:07.026Z,18.81
2019-04-01T13:49:41.456Z,18.80
2019-04-01T13:52:10.251Z,18.78
2019-04-01T13:54:39.230Z,18.66
2019-04-01T13:57:08.588Z,18.46
2019-04-01T13:59:48.612Z,18.35
2019-04-01T14:02:07.998Z,18.24
2019-04-01T14:04:37.104Z,18.00
2019-04-01T14:07:08.125Z,17.81
2019-04-01T14:09:36.786Z,17.69
2019-04-01T14:12:05.846Z,17.57
2019-04-01T14:14:34.454Z,17.40
2019-04-01T14:17:03.680Z,17.17
2019-04-01T14:19:32.823Z,17.07
2019-04-01T14:22:03.095Z,16.94
2019-04-01T14:24:33.156Z,16.62
2019-04-01T14:27:01.767Z,16.30
2019-04-01T14:29:30.350Z,16.09
2019-04-01T14:31:59.456Z,15.91
2019-04-01T14:34:28.344Z,15.66
2019-04-01T14:36:56.994Z,15.48
2019-04-01T14:39:25.652Z,15.35
2019-04-01T14:41:54.288Z,15.27
2019-04-01T14:44:22.879Z,15.18
2019-04-01T14:46:51.994Z,15.03
2019-04-01T14:49:20.572Z,14.92
2019-04-01T14:51:49.522Z,14.82
2019-04-01T14:54:20.630Z,14.69
2019-04-01T14:56:48.485Z,14.62
2019-04-01T14:59:17.053Z,14.53
2019-04-01T15:01:46.252Z,14.50
2019-04-01T15:04:14.831Z,14.43
2019-04-01T15:06:45.061Z,14.39
2019-04-01T15:09:13.800Z,14.35
2019-04-01T15:11:42.451Z,14.30
2019-04-01T15:14:11.043Z,14.29
2019-04-01T15:16:39.638Z,14.27
2019-04-01T15:19:08.230Z,14.22
2019-04-01T15:21:37.687Z,14.21
2019-04-01T15:24:06.336Z,14.22
2019-04-01T15:26:35.430Z,14.23
2019-04-01T15:29:04.240Z,14.23
2019-04-01T15:31:32.828Z,14.22
2019-04-01T15:34:01.630Z,14.18
2019-04-01T15:36:30.316Z,14.18
2019-04-01T15:38:58.913Z,14.18
2019-04-01T15:41:27.667Z,14.15
2019-04-01T15:43:56.249Z,14.13
2019-04-01T15:46:25.040Z,14.13
2019-04-01T15:48:53.719Z,14.09
2019-04-01T15:51:22.327Z,14.06
2019-04-01T15:53:50.922Z,14.05
2019-04-01T15:56:19.530Z,14.05
2019-04-01T15:58:50.767Z,14.05
2019-04-01T16:01:18.439Z,14.04
2019-04-01T16:03:47.020Z,14.05
2019-04-01T16:06:15.652Z,14.05
2019-04-01T16:08:44.281Z,14.01
2019-04-01T16:11:12.940Z,13.98
2019-04-01T16:13:42.312Z,13.95
2019-04-01T16:16:14.472Z,13.92
2019-04-01T16:18:42.176Z,13.88
2019-04-01T16:21:11.327Z,13.83
2019-04-01T16:23:39.954Z,13.82
2019-04-01T16:26:09.691Z,13.78
2019-04-01T16:28:38.603Z,13.77
2019-04-01T16:31:07.177Z,13.75
2019-04-01T16:33:35.762Z,13.73
2019-04-01T16:36:04.541Z,13.72
2019-04-01T16:38:33.123Z,13.71
2019-04-01T16:41:01.709Z,13.69
2019-04-01T16:43:30.408Z,13.66
2019-04-01T16:45:59.087Z,13.63
2019-04-01T16:48:27.947Z,13.60
2019-04-01T16:50:56.515Z,13.56
2019-04-01T16:53:25.230Z,13.54
2019-04-01T16:55:53.928Z,13.51
2019-04-01T16:58:22.507Z,13.47
2019-04-01T17:00:51.096Z,13.45
2019-04-01T17:03:20.437Z,13.41
2019-04-01T17:05:49.193Z,13.36
2019-04-01T17:08:17.818Z,13.32
2019-04-01T17:10:48.078Z,13.28
2019-04-01T17:13:16.668Z,13.25
2019-04-01T17:15:45.309Z,13.19
2019-04-01T17:18:14.080Z,13.13
2019-04-01T17:20:42.684Z,13.04
2019-04-01T17:23:11.257Z,12.96
2019-04-01T17:25:39.880Z,12.87
2019-04-01T17:28:08.462Z,12.79
2019-04-01T17:30:37.226Z,12.73
2019-04-01T17:33:08.406Z,12.66
2019-04-01T17:35:36.778Z,12.60
2019-04-01T17:38:06.312Z,12.52
2019-04-01T17:40:35.623Z,12.43
2019-04-01T17:43:04.500Z,12.35
2019-04-01T17:45:36.457Z,12.28
2019-04-01T17:48:06.056Z,12.07
2019-04-01T17:50:35.622Z,12.07
2019-04-01T17:53:05.979Z,12.00
2019-04-01T17:55:34.565Z,11.91
2019-04-01T17:58:03.174Z,11.82
2019-04-01T18:00:33.430Z,11.72
2019-04-01T18:03:02.144Z,11.60
2019-04-01T18:05:30.716Z,11.51
2019-04-01T18:07:59.368Z,11.42
2019-04-01T18:10:28.606Z,11.32
2019-04-01T18:12:57.895Z,11.23
2019-04-01T18:15:26.471Z,11.17
2019-04-01T18:17:55.222Z,11.11
2019-04-01T18:20:24.177Z,11.06
2019-04-01T18:22:52.788Z,11.05
2019-04-01T18:25:21.545Z,11.00
2019-04-01T18:27:50.063Z,10.96
2019-04-01T18:30:19.144Z,10.91
2019-04-01T18:32:51.315Z,10.86
2019-04-01T18:35:18.025Z,10.81
2019-04-01T18:37:46.795Z,10.73
2019-04-01T18:40:15.485Z,10.66
2019-04-01T18:42:44.111Z,10.62
2019-04-01T18:45:12.891Z,10.57
2019-04-01T18:47:41.544Z,10.52
2019-04-01T18:50:10.417Z,10.47
2019-04-01T18:52:39.004Z,10.43
2019-04-01T18:55:08.147Z,10.37
2019-04-01T18:57:36.850Z,10.32
2019-04-01T19:00:08.678Z,10.27
2019-04-01T19:02:37.258Z,10.27
2019-04-01T19:05:06.139Z,10.24
2019-04-01T19:07:35.752Z,10.23
2019-04-01T19:10:08.132Z,10.21
2019-04-01T19:12:36.737Z,10.19
2019-04-01T19:15:09.952Z,10.17
2019-04-01T19:17:38.046Z,10.11
2019-04-01T19:20:08.861Z,10.05
2019-04-01T19:22:37.457Z,10.00
2019-04-01T19:25:08.909Z,9.95
2019-04-01T19:27:37.540Z,9.90
2019-04-01T19:30:08.032Z,9.84
2019-04-01T19:32:38.144Z,9.79
2019-04-01T19:35:09.464Z,9.78
2019-04-01T19:37:38.314Z,9.76
2019-04-01T19:40:08.656Z,9.73
2019-04-01T19:42:39.494Z,9.71
2019-04-01T19:45:09.304Z,9.67
2019-04-01T19:47:37.905Z,9.64
2019-04-01T19:50:08.477Z,9.57
2019-04-01T19:52:37.685Z,9.50
2019-04-01T19:55:07.060Z,9.46
2019-04-01T19:57:35.748Z,9.41
2019-04-01T20:00:06.831Z,9.36
2019-04-01T20:02:35.928Z,9.30
2019-04-01T20:05:06.923Z,9.26
2019-04-01T20:07:35.533Z,9.22
2019-04-01T20:10:05.641Z,9.16
2019-04-01T20:12:34.233Z,9.12
2019-04-01T20:15:02.996Z,9.06
2019-04-01T20:17:31.596Z,9.02
2019-04-01T20:20:00.321Z,8.98
2019-04-01T20:22:30.102Z,8.97
2019-04-01T20:24:58.672Z,8.94
2019-04-01T20:27:27.271Z,8.90
2019-04-01T20:29:55.924Z,8.85
2019-04-01T20:32:24.529Z,8.78
2019-04-01T20:34:57.204Z,8.75
2019-04-01T20:37:23.473Z,8.71
2019-04-01T20:39:52.140Z,8.67
2019-04-01T20:42:20.815Z,8.63
2019-04-01T20:44:49.392Z,8.59
2019-04-01T20:47:17.971Z,8.55
2019-04-01T20:49:46.851Z,8.51
2019-04-01T20:52:15.545Z,8.46
2019-04-01T20:54:45.024Z,8.44
2019-04-01T20:57:14.182Z,8.39
2019-04-01T20:59:43.053Z,8.37
2019-04-01T21:02:11.789Z,8.33
2019-04-01T21:04:40.619Z,8.27
2019-04-01T21:07:10.016Z,8.22
2019-04-01T21:09:38.770Z,8.15
2019-04-01T21:12:08.426Z,8.06
2019-04-01T21:14:37.343Z,7.99
2019-04-01T21:17:05.955Z,7.94
2019-04-01T21:19:34.566Z,7.87
2019-04-01T21:22:03.238Z,7.83
2019-04-01T21:24:31.747Z,7.76
2019-04-01T21:27:00.443Z,7.72
2019-04-01T21:29:29.052Z,7.68
2019-04-01T21:31:57.665Z,7.66
2019-04-01T21:34:26.786Z,7.66
2019-04-01T21:36:55.531Z,7.66
2019-04-01T21:39:24.114Z,7.63
2019-04-01T21:41:53.136Z,7.62
2019-04-01T21:44:22.542Z,7.58
2019-04-01T21:46:51.466Z,7.55
2019-04-01T21:49:20.085Z,7.54
2019-04-01T21:51:48.669Z,7.51
2019-04-01T21:54:17.494Z,7.49
2019-04-01T21:56:46.127Z,7.49
2019-04-01T21:59:14.709Z,7.49
2019-04-01T22:01:43.288Z,7.47
2019-04-01T22:04:11.867Z,7.44
2019-04-01T22:06:41.123Z,7.41
2019-04-01T22:09:10.832Z,7.39
2019-04-01T22:11:39.443Z,7.36
2019-04-01T22:14:08.042Z,7.35
2019-04-01T22:16:36.618Z,7.33
2019-04-01T22:19:05.480Z,7.31
2019-04-01T22:21:34.671Z,7.28
2019-04-01T22:24:04.255Z,7.26
2019-04-01T22:26:33.132Z,7.25
2019-04-01T22:29:01.827Z,7.24
2019-04-01T22:31:30.569Z,7.24
2019-04-01T22:33:59.185Z,7.24
2019-04-01T22:36:31.177Z,7.23
2019-04-01T22:38:58.257Z,7.18
2019-04-01T22:41:28.140Z,7.15
2019-04-01T22:43:57.434Z,7.11
2019-04-01T22:46:26.369Z,7.08
2019-04-01T22:48:55.067Z,7.04
2019-04-01T22:51:23.698Z,7.02
2019-04-01T22:53:52.317Z,6.99
2019-04-01T22:56:21.004Z,6.97
2019-04-01T22:58:50.305Z,6.94
2019-04-01T23:01:20.018Z,6.93
2019-04-01T23:03:48.685Z,6.90
2019-04-01T23:06:17.266Z,6.89
2019-04-01T23:08:46.212Z,6.87
2019-04-01T23:11:15.130Z,6.84
2019-04-01T23:13:43.652Z,6.81
2019-04-01T23:16:13.093Z,6.84
2019-04-01T23:18:41.713Z,6.83
2019-04-01T23:21:10.480Z,6.83
2019-04-01T23:23:39.132Z,6.83
2019-04-01T23:26:07.785Z,6.82
2019-04-01T23:28:36.756Z,6.80
2019-04-01T23:31:05.346Z,6.76
2019-04-01T23:33:33.929Z,6.73
2019-04-01T23:36:02.518Z,6.71
2019-04-01T23:38:31.094Z,6.71
2019-04-01T23:41:01.081Z,6.71
2019-04-01T23:43:29.763Z,6.70
2019-04-01T23:45:58.608Z,6.68
2019-04-01T23:48:27.188Z,6.69
2019-04-01T23:50:55.769Z,6.68
2019-04-01T23:53:24.428Z,6.69
2019-04-01T23:55:53.029Z,6.68
2019-04-01T23:58:22.486Z,6.65
